createdAt,value
2018-07-25T00:00:32.272Z,26.79
2018-07-25T00:03:03.345Z,26.85
2018-07-25T00:05:33.981Z,26.97
2018-07-25T00:08:05.095Z,27.11
2018-07-25T00:10:40.682Z,27.02
2018-07-25T00:13:11.512Z,26.77
2018-07-25T00:15:42.147Z,26.78
2018-07-25T00:18:13.046Z,26.46
2018-07-25T00:20:43.716Z,26.64
2018-07-25T00:23:14.520Z,26.70
2018-07-25T00:25:45.126Z,26.53
2018-07-25T00:28:15.810Z,26.66
2018-07-25T00:30:46.569Z,26.23
2018-07-25T00:33:17.337Z,26.22
2018-07-25T00:35:48.027Z,26.29
2018-07-25T00:38:18.614Z,26.23
2018-07-25T00:40:49.246Z,26.29
2018-07-25T00:43:19.931Z,26.29
2018-07-25T00:45:50.311Z,26.18
2018-07-25T00:48:20.889Z,26.15
2018-07-25T00:50:51.486Z,26.01
2018-07-25T00:53:22.000Z,26.01
2018-07-25T00:55:52.654Z,26.01
2018-07-25T00:58:23.376Z,25.92
2018-07-25T01:00:54.017Z,26.07
2018-07-25T01:03:24.736Z,25.91
2018-07-25T01:05:55.419Z,26.00
2018-07-25T01:08:26.237Z,25.95
2018-07-25T01:10:56.952Z,25.81
2018-07-25T01:13:27.817Z,25.91
2018-07-25T01:15:58.620Z,25.84
2018-07-25T01:18:29.340Z,25.61
2018-07-25T01:20:59.925Z,25.64
2018-07-25T01:23:30.852Z,25.43
2018-07-25T01:26:01.709Z,25.51
2018-07-25T01:28:32.749Z,25.64
2018-07-25T01:31:03.372Z,25.44
2018-07-25T01:33:34.101Z,25.44
2018-07-25T01:36:04.705Z,25.02
2018-07-25T01:38:35.403Z,25.48
2018-07-25T01:41:06.089Z,25.09
2018-07-25T01:43:36.811Z,25.35
2018-07-25T01:46:07.660Z,25.13
2018-07-25T01:48:38.433Z,25.06
2018-07-25T01:51:09.045Z,25.14
2018-07-25T01:53:39.728Z,24.92
2018-07-25T01:56:10.401Z,24.68
2018-07-25T01:58:41.509Z,24.76
2018-07-25T02:01:12.124Z,24.90
2018-07-25T02:03:42.781Z,24.59
2018-07-25T02:06:13.512Z,24.58
2018-07-25T02:08:44.116Z,24.49
2018-07-25T02:11:14.811Z,24.74
2018-07-25T02:13:45.569Z,24.52
2018-07-25T02:16:16.385Z,24.58
2018-07-25T02:18:47.149Z,24.55
2018-07-25T02:21:17.876Z,24.63
2018-07-25T02:23:49.048Z,24.75
2018-07-25T02:26:19.784Z,24.73
2018-07-25T02:28:50.601Z,24.75
2018-07-25T02:31:21.257Z,24.72
2018-07-25T02:33:57.013Z,24.68
2018-07-25T02:36:27.553Z,24.54
2018-07-25T02:38:58.312Z,24.81
2018-07-25T02:41:29.041Z,24.71
2018-07-25T02:43:59.129Z,24.52
2018-07-25T02:46:29.680Z,24.51
2018-07-25T02:49:00.643Z,24.55
2018-07-25T02:51:32.628Z,24.47
2018-07-25T02:54:03.601Z,24.48
2018-07-25T02:56:36.329Z,24.57
2018-07-25T02:59:06.961Z,24.41
2018-07-25T03:01:37.569Z,24.38
2018-07-25T03:04:08.494Z,24.68
2018-07-25T03:06:39.054Z,24.53
2018-07-25T03:09:10.670Z,24.59
2018-07-25T03:11:41.412Z,24.66
2018-07-25T03:14:12.178Z,24.74
2018-07-25T03:16:42.933Z,24.65
2018-07-25T03:19:14.064Z,24.66
2018-07-25T03:21:44.628Z,24.60
2018-07-25T03:24:15.473Z,24.68
2018-07-25T03:26:46.046Z,24.51
2018-07-25T03:29:16.833Z,24.42
2018-07-25T03:31:47.472Z,24.45
2018-07-25T03:34:18.193Z,24.48
2018-07-25T03:36:48.676Z,24.48
2018-07-25T03:39:19.722Z,24.58
2018-07-25T03:41:50.349Z,24.63
2018-07-25T03:44:21.096Z,24.78
2018-07-25T03:46:51.759Z,24.74
2018-07-25T03:49:22.711Z,24.83
2018-07-25T03:51:53.331Z,25.00
2018-07-25T03:54:24.053Z,25.14
2018-07-25T03:56:54.645Z,24.99
2018-07-25T03:59:25.582Z,25.16
2018-07-25T04:01:56.346Z,25.40
2018-07-25T04:04:27.080Z,25.56
2018-07-25T04:06:57.580Z,25.65
2018-07-25T04:09:28.504Z,25.61
2018-07-25T04:11:59.315Z,25.59
2018-07-25T04:14:30.117Z,25.58
2018-07-25T04:17:00.712Z,25.77
2018-07-25T04:19:31.428Z,25.84
2018-07-25T04:22:02.084Z,26.02
2018-07-25T04:24:32.402Z,26.29
2018-07-25T04:27:03.193Z,26.26
2018-07-25T04:29:34.065Z,26.59
2018-07-25T04:32:04.713Z,26.72
2018-07-25T04:34:35.533Z,26.63
2018-07-25T04:37:06.168Z,26.53
2018-07-25T04:39:37.040Z,26.97
2018-07-25T04:42:07.810Z,27.10
2018-07-25T04:44:38.608Z,27.00
2018-07-25T04:47:09.272Z,26.79
2018-07-25T04:49:40.184Z,27.19
2018-07-25T04:52:10.901Z,27.31
2018-07-25T04:54:41.817Z,27.05
2018-07-25T04:57:12.680Z,27.31
2018-07-25T04:59:43.978Z,27.80
2018-07-25T05:02:14.600Z,28.33
2018-07-25T05:04:45.304Z,28.23
2018-07-25T05:07:15.960Z,28.25
2018-07-25T05:09:46.850Z,28.09
2018-07-25T05:12:17.852Z,28.12
2018-07-25T05:14:48.052Z,28.09
2018-07-25T05:17:18.844Z,28.13
2018-07-25T05:19:49.798Z,28.17
2018-07-25T05:22:20.467Z,28.25
2018-07-25T05:24:51.292Z,28.49
2018-07-25T05:27:21.856Z,28.09
2018-07-25T05:29:52.376Z,28.48
2018-07-25T05:32:23.043Z,27.99
2018-07-25T05:34:54.312Z,28.53
2018-07-25T05:37:26.388Z,28.56
2018-07-25T05:39:57.517Z,28.40
2018-07-25T05:42:29.692Z,28.39
2018-07-25T05:45:00.547Z,28.37
2018-07-25T05:47:31.149Z,28.27
2018-07-25T05:50:01.829Z,29.08
2018-07-25T05:52:32.484Z,28.86
2018-07-25T05:55:03.637Z,29.05
2018-07-25T05:57:34.717Z,29.02
2018-07-25T06:00:05.885Z,29.29
2018-07-25T06:02:36.492Z,29.00
2018-07-25T06:05:07.380Z,29.53
2018-07-25T06:07:37.718Z,30.11
2018-07-25T06:10:08.663Z,30.02
2018-07-25T06:12:39.220Z,29.70
2018-07-25T06:15:09.962Z,30.20
2018-07-25T06:17:40.692Z,29.93
2018-07-25T06:20:11.985Z,29.99
2018-07-25T06:22:42.508Z,30.16
2018-07-25T06:25:13.317Z,30.71
2018-07-25T06:27:43.892Z,30.71
2018-07-25T06:30:14.548Z,30.86
2018-07-25T06:32:45.246Z,31.56
2018-07-25T06:35:16.145Z,32.25
2018-07-25T06:37:46.766Z,33.17
2018-07-25T06:40:16.847Z,32.14
2018-07-25T06:42:47.580Z,32.11
2018-07-25T06:45:18.405Z,33.24
2018-07-25T06:47:48.975Z,33.07
2018-07-25T06:50:20.640Z,32.31
2018-07-25T06:52:50.666Z,31.97
2018-07-25T06:55:21.504Z,31.83
2018-07-25T06:57:52.064Z,32.20
2018-07-25T07:00:22.609Z,31.90
2018-07-25T07:02:53.158Z,32.06
2018-07-25T07:05:23.828Z,31.83
2018-07-25T07:07:54.490Z,31.66
2018-07-25T07:10:25.230Z,31.35
2018-07-25T07:12:56.005Z,31.30
2018-07-25T07:15:26.830Z,30.48
2018-07-25T07:17:57.496Z,30.73
2018-07-25T07:20:27.985Z,30.97
2018-07-25T07:22:58.640Z,30.82
2018-07-25T07:25:29.597Z,31.13
2018-07-25T07:28:00.260Z,31.17
2018-07-25T07:30:31.069Z,31.08
2018-07-25T07:33:01.804Z,31.69
2018-07-25T07:35:32.412Z,31.44
2018-07-25T07:38:02.920Z,31.99
2018-07-25T07:40:33.817Z,32.15
2018-07-25T07:43:04.426Z,32.65
2018-07-25T07:45:35.192Z,32.59
2018-07-25T07:48:05.970Z,32.75
2018-07-25T07:50:36.662Z,32.56
2018-07-25T07:53:07.292Z,31.60
2018-07-25T07:55:37.845Z,32.40
2018-07-25T07:58:08.437Z,33.45
2018-07-25T08:00:39.079Z,32.97
2018-07-25T08:03:09.544Z,32.86
2018-07-25T08:05:40.655Z,32.77
2018-07-25T08:08:11.216Z,32.95
2018-07-25T08:10:42.134Z,33.17
2018-07-25T08:13:12.750Z,33.24
2018-07-25T08:15:43.685Z,32.77
2018-07-25T08:18:14.248Z,32.69
2018-07-25T08:20:45.176Z,33.41
2018-07-25T08:23:15.837Z,33.27
2018-07-25T08:25:46.692Z,32.88
2018-07-25T08:28:17.402Z,33.05
2018-07-25T08:30:48.041Z,32.97
2018-07-25T08:33:18.531Z,32.97
2018-07-25T08:35:49.168Z,32.48
2018-07-25T08:38:36.237Z,33.26
2018-07-25T08:41:07.379Z,32.65
2018-07-25T08:43:39.339Z,33.06
2018-07-25T08:46:11.337Z,33.90
2018-07-25T08:48:42.017Z,34.37
2018-07-25T08:51:12.696Z,34.55
2018-07-25T08:53:43.413Z,33.80
2018-07-25T08:56:14.051Z,33.54
2018-07-25T08:58:44.528Z,33.37
2018-07-25T09:01:15.507Z,35.02
2018-07-25T09:03:46.100Z,36.67
2018-07-25T09:06:16.909Z,37.71
2018-07-25T09:08:47.729Z,37.45
2018-07-25T09:11:50.944Z,37.04
2018-07-25T09:14:21.564Z,36.85
2018-07-25T09:16:52.932Z,35.48
2018-07-25T09:19:23.636Z,35.86
2018-07-25T09:21:54.329Z,35.94
2018-07-25T09:24:24.993Z,35.68
2018-07-25T09:26:55.834Z,36.09
2018-07-25T09:29:26.512Z,35.50
2018-07-25T09:31:57.196Z,35.75
2018-07-25T09:34:27.880Z,35.73
2018-07-25T09:36:58.348Z,36.07
2018-07-25T09:39:28.980Z,36.35
2018-07-25T09:42:00.061Z,36.59
2018-07-25T09:44:30.713Z,37.32
2018-07-25T09:47:01.457Z,38.07
2018-07-25T09:49:32.177Z,37.30
2018-07-25T09:52:02.980Z,37.71
2018-07-25T09:54:33.741Z,37.53
2018-07-25T09:57:04.525Z,37.96
2018-07-25T09:59:35.104Z,38.92
2018-07-25T10:02:05.909Z,39.71
2018-07-25T10:04:36.576Z,38.84
2018-07-25T10:07:07.499Z,38.74
2018-07-25T10:09:38.061Z,39.69
2018-07-25T10:12:09.443Z,39.15
2018-07-25T10:14:40.356Z,37.68
2018-07-25T10:17:11.273Z,37.22
2018-07-25T10:19:41.868Z,37.45
2018-07-25T10:22:12.579Z,38.22
2018-07-25T10:24:43.501Z,37.43
2018-07-25T10:27:14.420Z,37.01
2018-07-25T10:29:44.957Z,36.50
2018-07-25T10:32:15.540Z,36.07
2018-07-25T10:34:46.376Z,36.34
2018-07-25T10:37:17.386Z,36.17
2018-07-25T10:39:47.972Z,36.78
2018-07-25T10:42:18.764Z,36.61
2018-07-25T10:44:49.429Z,36.89
2018-07-25T10:47:20.185Z,38.07
2018-07-25T10:49:50.865Z,38.82
2018-07-25T10:52:21.940Z,39.58
2018-07-25T10:54:52.584Z,40.30
2018-07-25T10:57:23.369Z,38.98
2018-07-25T10:59:54.050Z,37.79
2018-07-25T11:02:24.897Z,37.00
2018-07-25T11:04:55.550Z,36.16
2018-07-25T11:07:26.365Z,35.82
2018-07-25T11:09:56.929Z,34.74
2018-07-25T11:12:27.780Z,34.51
2018-07-25T11:14:58.405Z,34.69
2018-07-25T11:17:29.265Z,34.79
2018-07-25T11:20:00.001Z,34.90
2018-07-25T11:22:30.811Z,34.92
2018-07-25T11:25:01.480Z,35.19
2018-07-25T11:27:32.162Z,35.25
2018-07-25T11:30:03.053Z,35.41
2018-07-25T11:32:33.910Z,35.29
2018-07-25T11:35:04.545Z,35.44
2018-07-25T11:37:36.157Z,35.14
2018-07-25T11:40:07.365Z,35.17
2018-07-25T11:42:38.297Z,35.80
2018-07-25T11:45:08.701Z,35.42
2018-07-25T11:47:39.456Z,35.58
2018-07-25T11:50:10.185Z,35.64
2018-07-25T11:52:40.909Z,35.66
2018-07-25T11:55:11.571Z,35.73
2018-07-25T11:57:42.376Z,35.32
2018-07-25T12:00:12.907Z,35.36
2018-07-25T12:02:43.705Z,35.55
2018-07-25T12:05:14.554Z,35.44
2018-07-25T12:07:45.429Z,35.14
2018-07-25T12:10:16.120Z,35.48
2018-07-25T12:12:46.952Z,35.18
2018-07-25T12:15:17.621Z,35.34
2018-07-25T12:17:48.256Z,35.36
2018-07-25T12:20:19.041Z,35.17
2018-07-25T12:22:49.839Z,34.13
2018-07-25T12:25:19.915Z,34.03
2018-07-25T12:27:50.478Z,34.13
2018-07-25T12:30:21.484Z,34.48
2018-07-25T12:32:52.106Z,34.69
2018-07-25T12:35:22.993Z,34.56
2018-07-25T12:37:53.729Z,34.53
2018-07-25T12:40:24.481Z,34.62
2018-07-25T12:42:55.277Z,35.46
2018-07-25T12:45:26.162Z,35.84
2018-07-25T12:47:57.608Z,36.66
2018-07-25T12:50:28.419Z,36.63
2018-07-25T12:52:58.678Z,36.94
2018-07-25T12:55:29.445Z,37.31
2018-07-25T12:58:00.116Z,37.57
2018-07-25T13:00:30.834Z,38.20
2018-07-25T13:03:01.482Z,38.35
2018-07-25T13:05:32.244Z,38.00
2018-07-25T13:08:03.055Z,39.06
2018-07-25T13:10:33.941Z,38.32
2018-07-25T13:13:04.766Z,37.41
2018-07-25T13:15:35.756Z,38.28
2018-07-25T13:18:06.183Z,37.27
2018-07-25T13:20:37.118Z,37.83
2018-07-25T13:23:07.759Z,37.69
2018-07-25T13:25:38.369Z,39.11
2018-07-25T13:28:09.060Z,37.53
2018-07-25T13:30:39.933Z,36.51
2018-07-25T13:33:10.792Z,35.55
2018-07-25T13:35:41.072Z,35.03
2018-07-25T13:38:11.673Z,35.58
2018-07-25T13:40:42.645Z,35.24
2018-07-25T13:43:14.120Z,35.66
2018-07-25T13:45:44.845Z,35.86
2018-07-25T13:48:14.997Z,36.71
2018-07-25T13:50:45.706Z,36.59
2018-07-25T13:53:16.286Z,36.03
2018-07-25T13:55:47.076Z,35.84
2018-07-25T13:58:17.802Z,35.77
2018-07-25T14:00:48.680Z,35.42
2018-07-25T14:03:19.323Z,35.74
2018-07-25T14:05:50.161Z,36.27
2018-07-25T14:08:20.469Z,36.93
2018-07-25T14:10:51.305Z,37.74
2018-07-25T14:13:21.589Z,38.52
2018-07-25T14:15:52.357Z,38.92
2018-07-25T14:18:22.682Z,39.50
2018-07-25T14:20:53.337Z,39.38
2018-07-25T14:23:23.960Z,38.01
2018-07-25T14:25:54.636Z,38.29
2018-07-25T14:28:25.325Z,38.03
2018-07-25T14:30:56.157Z,38.40
2018-07-25T14:33:26.716Z,36.88
2018-07-25T14:35:57.601Z,35.90
2018-07-25T14:38:28.280Z,36.35
2018-07-25T14:40:59.156Z,36.30
2018-07-25T14:43:29.934Z,36.01
2018-07-25T14:46:00.728Z,35.94
2018-07-25T14:48:31.482Z,35.32
2018-07-25T14:51:02.460Z,34.70
2018-07-25T14:53:33.135Z,34.33
2018-07-25T14:56:04.186Z,34.07
2018-07-25T14:58:34.836Z,33.94
2018-07-25T15:01:06.085Z,33.89
2018-07-25T15:03:36.772Z,33.99
2018-07-25T15:06:07.764Z,33.60
2018-07-25T15:08:38.310Z,33.43
2018-07-25T15:11:09.133Z,33.68
2018-07-25T15:13:39.806Z,33.57
2018-07-25T15:16:10.528Z,33.64
2018-07-25T15:18:41.238Z,33.31
2018-07-25T15:21:11.977Z,33.52
2018-07-25T15:23:55.769Z,33.53
2018-07-25T15:26:26.621Z,33.78
2018-07-25T15:28:57.589Z,33.81
2018-07-25T15:31:28.249Z,33.58
2018-07-25T15:33:58.992Z,33.26
2018-07-25T15:36:41.984Z,33.05
2018-07-25T15:39:15.149Z,33.06
2018-07-25T15:41:46.979Z,33.45
2018-07-25T15:44:18.518Z,34.02
2018-07-25T15:46:49.359Z,34.61
2018-07-25T15:49:19.918Z,34.91
2018-07-25T15:51:50.765Z,35.14
2018-07-25T15:54:21.429Z,34.93
2018-07-25T15:56:52.279Z,34.69
2018-07-25T15:59:22.980Z,35.42
2018-07-25T16:01:53.904Z,35.44
2018-07-25T16:04:24.576Z,35.75
2018-07-25T16:06:55.245Z,36.08
2018-07-25T16:09:25.609Z,35.13
2018-07-25T16:11:56.237Z,34.89
2018-07-25T16:14:26.817Z,34.99
2018-07-25T16:16:57.628Z,34.68
2018-07-25T16:19:28.190Z,34.75
2018-07-25T16:21:58.889Z,34.74
2018-07-25T16:24:29.607Z,35.24
2018-07-25T16:27:00.344Z,35.49
2018-07-25T16:29:31.010Z,35.57
2018-07-25T16:32:01.866Z,35.46
2018-07-25T16:34:32.566Z,35.28
2018-07-25T16:37:03.521Z,35.44
2018-07-25T16:39:34.172Z,35.29
2018-07-25T16:42:04.968Z,34.94
2018-07-25T16:44:35.657Z,34.52
2018-07-25T16:47:06.576Z,34.11
2018-07-25T16:49:37.274Z,34.06
2018-07-25T16:52:08.301Z,34.10
2018-07-25T16:54:38.980Z,33.72
2018-07-25T16:57:09.966Z,33.36
2018-07-25T16:59:40.666Z,33.38
2018-07-25T17:02:11.896Z,33.03
2018-07-25T17:04:42.482Z,33.16
2018-07-25T17:07:13.341Z,32.95
2018-07-25T17:09:43.933Z,33.01
2018-07-25T17:12:14.665Z,32.90
2018-07-25T17:14:45.323Z,33.02
2018-07-25T17:17:16.228Z,33.42
2018-07-25T17:19:46.833Z,33.22
2018-07-25T17:22:17.542Z,33.01
2018-07-25T17:24:48.281Z,32.84
2018-07-25T17:27:19.136Z,32.58
2018-07-25T17:29:49.773Z,32.51
2018-07-25T17:32:20.412Z,32.37
2018-07-25T17:34:51.130Z,32.05
2018-07-25T17:37:22.224Z,32.06
2018-07-25T17:39:52.848Z,32.18
2018-07-25T17:42:23.488Z,31.99
2018-07-25T17:44:54.269Z,31.61
2018-07-25T17:47:25.200Z,31.52
2018-07-25T17:49:55.866Z,31.60
2018-07-25T17:52:26.580Z,31.36
2018-07-25T17:54:57.261Z,31.30
2018-07-25T17:57:27.801Z,31.31
2018-07-25T17:59:58.468Z,31.28
2018-07-25T18:02:29.206Z,31.12
2018-07-25T18:04:59.840Z,31.20
2018-07-25T18:07:30.919Z,31.05
2018-07-25T18:10:01.550Z,31.11
2018-07-25T18:12:32.593Z,31.07
2018-07-25T18:15:03.017Z,30.80
2018-07-25T18:17:33.905Z,30.75
2018-07-25T18:20:04.795Z,30.67
2018-07-25T18:22:35.787Z,30.69
2018-07-25T18:25:06.883Z,30.60
2018-07-25T18:27:37.745Z,30.70
2018-07-25T18:30:08.052Z,30.46
2018-07-25T18:32:38.689Z,30.60
2018-07-25T18:35:09.272Z,30.53
2018-07-25T18:37:40.057Z,30.66
2018-07-25T18:40:10.737Z,30.56
2018-07-25T18:42:41.573Z,30.38
2018-07-25T18:45:12.285Z,30.46
2018-07-25T18:47:43.034Z,30.26
2018-07-25T18:50:13.305Z,30.16
2018-07-25T18:52:44.097Z,30.10
2018-07-25T18:55:14.434Z,30.16
2018-07-25T18:57:44.973Z,30.05
2018-07-25T19:00:15.697Z,30.24
2018-07-25T19:02:46.645Z,30.29
2018-07-25T19:05:17.463Z,30.37
2018-07-25T19:07:48.574Z,30.37
2018-07-25T19:10:19.330Z,30.41
2018-07-25T19:12:50.132Z,30.33
2018-07-25T19:15:25.665Z,30.29
2018-07-25T19:17:56.558Z,30.42
2018-07-25T19:20:27.229Z,30.45
2018-07-25T19:22:57.785Z,30.59
2018-07-25T19:25:28.443Z,30.40
2018-07-25T19:27:59.438Z,30.28
2018-07-25T19:30:30.101Z,30.19
2018-07-25T19:33:00.466Z,29.98
2018-07-25T19:35:31.179Z,29.77
2018-07-25T19:38:02.221Z,29.56
2018-07-25T19:40:32.984Z,29.40
2018-07-25T19:43:03.913Z,29.12
2018-07-25T19:45:34.324Z,28.97
2018-07-25T19:48:04.969Z,28.84
2018-07-25T19:50:35.467Z,28.69
2018-07-25T19:53:06.140Z,28.76
2018-07-25T19:55:36.899Z,28.86
2018-07-25T19:58:08.022Z,29.02
2018-07-25T20:00:38.717Z,29.09
2018-07-25T20:03:09.386Z,29.29
2018-07-25T20:05:39.984Z,29.30
2018-07-25T20:08:10.649Z,29.21
2018-07-25T20:10:41.337Z,29.06
2018-07-25T20:13:12.160Z,29.08
2018-07-25T20:15:49.637Z,29.08
2018-07-25T20:18:20.394Z,29.11
2018-07-25T20:20:51.020Z,29.09
2018-07-25T20:23:22.101Z,29.03
2018-07-25T20:25:52.852Z,28.86
2018-07-25T20:28:23.493Z,28.77
2018-07-25T20:30:54.263Z,28.68
2018-07-25T20:33:25.030Z,28.80
2018-07-25T20:35:55.791Z,28.79
2018-07-25T20:38:26.381Z,28.99
2018-07-25T20:40:57.154Z,28.74
2018-07-25T20:43:27.845Z,28.54
2018-07-25T20:45:58.534Z,28.36
2018-07-25T20:48:29.568Z,28.34
2018-07-25T20:51:00.236Z,28.10
2018-07-25T20:53:31.336Z,28.05
2018-07-25T20:56:01.943Z,27.93
2018-07-25T20:58:32.217Z,27.97
2018-07-25T21:01:02.728Z,27.93
2018-07-25T21:03:33.253Z,28.13
2018-07-25T21:06:03.781Z,27.97
2018-07-25T21:08:34.801Z,27.93
2018-07-25T21:11:05.476Z,27.81
2018-07-25T21:13:36.357Z,27.87
2018-07-25T21:16:07.041Z,27.75
2018-07-25T21:18:37.836Z,27.63
2018-07-25T21:21:08.926Z,27.68
2018-07-25T21:23:39.723Z,27.56
2018-07-25T21:26:10.221Z,27.66
2018-07-25T21:28:41.257Z,27.37
2018-07-25T21:31:11.963Z,27.55
2018-07-25T21:33:42.673Z,27.60
2018-07-25T21:36:13.336Z,27.41
2018-07-25T21:38:44.197Z,27.43
2018-07-25T21:41:14.636Z,27.46
2018-07-25T21:43:45.469Z,27.43
2018-07-25T21:46:16.176Z,27.44
2018-07-25T21:48:47.206Z,27.33
2018-07-25T21:51:17.777Z,27.30
2018-07-25T21:53:48.535Z,27.14
2018-07-25T21:56:19.128Z,27.30
2018-07-25T21:58:49.888Z,27.20
2018-07-25T22:01:20.718Z,27.37
2018-07-25T22:03:51.420Z,27.35
2018-07-25T22:06:22.353Z,27.19
2018-07-25T22:08:53.669Z,27.14
2018-07-25T22:11:24.421Z,27.32
2018-07-25T22:13:57.827Z,27.24
2018-07-25T22:16:28.697Z,27.44
2018-07-25T22:18:59.286Z,27.28
2018-07-25T22:21:30.154Z,27.16
2018-07-25T22:24:00.688Z,26.92
2018-07-25T22:26:31.314Z,27.29
2018-07-25T22:29:01.933Z,27.38
2018-07-25T22:31:32.698Z,27.04
2018-07-25T22:34:03.160Z,27.19
2018-07-25T22:36:34.030Z,27.21
2018-07-25T22:39:06.849Z,27.17
2018-07-25T22:41:37.428Z,27.04
2018-07-25T22:44:07.916Z,26.99
2018-07-25T22:46:38.700Z,26.78
2018-07-25T22:49:09.282Z,26.63
2018-07-25T22:51:40.005Z,26.49
2018-07-25T22:54:10.608Z,26.57
2018-07-25T22:56:41.225Z,26.71
2018-07-25T22:59:13.743Z,26.49
2018-07-25T23:01:44.500Z,26.33
2018-07-25T23:04:15.142Z,26.33
2018-07-25T23:06:45.916Z,26.13
2018-07-25T23:09:16.769Z,26.14
2018-07-25T23:11:47.585Z,26.10
2018-07-25T23:14:18.112Z,26.05
2018-07-25T23:16:49.028Z,26.07
2018-07-25T23:19:19.736Z,26.04
2018-07-25T23:21:50.523Z,26.14
2018-07-25T23:24:21.312Z,26.04
2018-07-25T23:26:52.205Z,26.08
2018-07-25T23:29:22.513Z,26.10
2018-07-25T23:31:53.307Z,26.04
2018-07-25T23:34:24.049Z,26.20
2018-07-25T23:36:54.760Z,26.16
2018-07-25T23:39:25.588Z,26.14
2018-07-25T23:41:56.324Z,26.13
2018-07-25T23:44:27.009Z,25.93
2018-07-25T23:46:57.918Z,25.78
2018-07-25T23:49:28.583Z,25.91
2018-07-25T23:51:59.317Z,25.86
2018-07-25T23:54:29.970Z,25.78
2018-07-25T23:57:00.589Z,25.74
2018-07-25T23:59:31.434Z,25.53
